THY535 LTFO-LTFM
Flight info
| Callsign | THY535 |
|---|---|
| Flight time | 1h 30m |
| Altitude | 28000 |
| Route | ZUBR1M ZUBRE UN37 TBN UW71 CRM UL746 INB UW90 DEVMU UL852 EVPIM UT304 LUUPU UT310 NUGBA NUGB1E |
| Aircraft | B738/M-SDE2E3FGHIRWXY/LB1 |
Departure
| Time | 2026-04-24 21:10 |
|---|---|
| Airport | Rize–Artvin Airport (LTFO) |
Arrival
| Time | 2026-04-24 22:40 |
|---|---|
| Airport | İstanbul Airport (LTFM) |
| Time | Latitude | Longitude | Altitude | Speed | Heading |
|---|---|---|---|---|---|
| 2026-04-24 20:42 | 41.17562 | 40.84580 | 10 ft | 0 kts | 161° |
| 2026-04-24 20:51 | 41.17565 | 40.84579 | 10 ft | 0 kts | 161° |
| 2026-04-24 20:58 | 41.17567 | 40.84578 | 10 ft | 1 kts | 161° |
| 2026-04-24 20:58 | 41.17580 | 40.84572 | 10 ft | 2 kts | 161° |
| 2026-04-24 20:59 | 41.17595 | 40.84565 | 10 ft | 2 kts | 161° |
| 2026-04-24 20:59 | 41.17610 | 40.84559 | 9 ft | 2 kts | 178° |
| 2026-04-24 20:59 | 41.17624 | 40.84564 | 9 ft | 2 kts | 216° |
| 2026-04-24 20:59 | 41.17633 | 40.84578 | 9 ft | 0 kts | 248° |
| 2026-04-24 21:00 | 41.17635 | 40.84585 | 9 ft | 1 kts | 254° |
| 2026-04-24 21:00 | 41.17635 | 40.84588 | 9 ft | 0 kts | 253° |
| 2026-04-24 21:03 | 41.17633 | 40.84577 | 9 ft | 2 kts | 252° |
| 2026-04-24 21:03 | 41.17625 | 40.84545 | 9 ft | 4 kts | 254° |
| 2026-04-24 21:03 | 41.17622 | 40.84525 | 9 ft | 0 kts | 259° |
| 2026-04-24 21:04 | 41.17625 | 40.84513 | 9 ft | 3 kts | 289° |
| 2026-04-24 21:04 | 41.17642 | 40.84480 | 8 ft | 5 kts | 323° |
| 2026-04-24 21:04 | 41.17685 | 40.84458 | 8 ft | 7 kts | 342° |
| 2026-04-24 21:04 | 41.17730 | 40.84438 | 8 ft | 0 kts | 341° |
| 2026-04-24 21:05 | 41.17737 | 40.84435 | 8 ft | 2 kts | 341° |
| 2026-04-24 21:05 | 41.17761 | 40.84424 | 8 ft | 4 kts | 341° |
| 2026-04-24 21:06 | 41.17796 | 40.84409 | 8 ft | 5 kts | 341° |
| 2026-04-24 21:06 | 41.17834 | 40.84351 | 8 ft | 7 kts | 273° |
| 2026-04-24 21:06 | 41.17823 | 40.84307 | 8 ft | 7 kts | 250° |
| 2026-04-24 21:06 | 41.17804 | 40.84233 | 8 ft | 9 kts | 250° |
| 2026-04-24 21:07 | 41.17781 | 40.84148 | 8 ft | 10 kts | 251° |
| 2026-04-24 21:07 | 41.17756 | 40.84055 | 8 ft | 11 kts | 251° |
| 2026-04-24 21:07 | 41.17728 | 40.83949 | 8 ft | 12 kts | 251° |
| 2026-04-24 21:07 | 41.17698 | 40.83835 | 8 ft | 13 kts | 251° |
| 2026-04-24 21:08 | 41.17665 | 40.83709 | 9 ft | 14 kts | 251° |
| 2026-04-24 21:08 | 41.17630 | 40.83578 | 10 ft | 15 kts | 251° |
| 2026-04-24 21:08 | 41.17593 | 40.83437 | 8 ft | 17 kts | 250° |
| 2026-04-24 21:08 | 41.17530 | 40.83307 | 8 ft | 10 kts | 226° |
| 2026-04-24 21:09 | 41.17548 | 40.83262 | 8 ft | 9 kts | 36° |
| 2026-04-24 21:09 | 41.17581 | 40.83345 | 8 ft | 12 kts | 70° |
| 2026-04-24 21:09 | 41.17711 | 40.83831 | 9 ft | 108 kts | 71° |
| 2026-04-24 21:09 | 41.18053 | 40.85146 | 71 ft | 189 kts | 71° |
| 2026-04-24 21:10 | 41.18533 | 40.86980 | 620 ft | 233 kts | 71° |
| 2026-04-24 21:10 | 41.19089 | 40.89115 | 1506 ft | 250 kts | 71° |
| 2026-04-24 21:10 | 41.19620 | 40.91225 | 2762 ft | 242 kts | 71° |
| 2026-04-24 21:10 | 41.20154 | 40.93298 | 3796 ft | 242 kts | 69° |
| 2026-04-24 21:11 | 41.20976 | 40.95248 | 4716 ft | 249 kts | 50° |
| 2026-04-24 21:11 | 41.22291 | 40.96691 | 5794 ft | 250 kts | 28° |
| 2026-04-24 21:11 | 41.23930 | 40.97435 | 6770 ft | 253 kts | 8° |
| 2026-04-24 21:11 | 41.25664 | 40.97361 | 7702 ft | 257 kts | 347° |
| 2026-04-24 21:12 | 41.27333 | 40.96574 | 8605 ft | 260 kts | 330° |
| 2026-04-24 21:12 | 41.28712 | 40.95027 | 9503 ft | 264 kts | 308° |
| 2026-04-24 21:12 | 41.29646 | 40.92956 | 10442 ft | 267 kts | 294° |
| 2026-04-24 21:12 | 41.30238 | 40.90618 | 11350 ft | 271 kts | 281° |
| 2026-04-24 21:13 | 41.30294 | 40.88045 | 11858 ft | 291 kts | 260° |
| 2026-04-24 21:13 | 41.29622 | 40.85382 | 12007 ft | 323 kts | 246° |
| 2026-04-24 21:13 | 41.28601 | 40.82583 | 12006 ft | 357 kts | 245° |
| 2026-04-24 21:13 | 41.27615 | 40.79417 | 12001 ft | 374 kts | 250° |
| 2026-04-24 21:14 | 41.26805 | 40.76158 | 12001 ft | 377 kts | 253° |
| 2026-04-24 21:14 | 41.26066 | 40.72780 | 12134 ft | 388 kts | 254° |
| 2026-04-24 21:14 | 41.25348 | 40.69355 | 13304 ft | 385 kts | 255° |
| 2026-04-24 21:14 | 41.24684 | 40.65947 | 14202 ft | 389 kts | 257° |
| 2026-04-24 21:15 | 41.24079 | 40.62426 | 15056 ft | 394 kts | 258° |
| 2026-04-24 21:15 | 41.23495 | 40.58862 | 15895 ft | 399 kts | 258° |
| 2026-04-24 21:15 | 41.22908 | 40.55295 | 16697 ft | 403 kts | 258° |
| 2026-04-24 21:15 | 41.22300 | 40.51668 | 17491 ft | 408 kts | 257° |
| 2026-04-24 21:16 | 41.21665 | 40.47964 | 18267 ft | 413 kts | 257° |
| 2026-04-24 21:16 | 41.21015 | 40.44230 | 19021 ft | 417 kts | 257° |
| 2026-04-24 21:16 | 41.20299 | 40.40541 | 19741 ft | 422 kts | 253° |
| 2026-04-24 21:16 | 41.19304 | 40.36846 | 20448 ft | 426 kts | 249° |
| 2026-04-24 21:17 | 41.18139 | 40.33232 | 21134 ft | 431 kts | 245° |
| 2026-04-24 21:17 | 41.16881 | 40.29605 | 21796 ft | 435 kts | 245° |
| 2026-04-24 21:17 | 41.15601 | 40.25998 | 22440 ft | 439 kts | 244° |
| 2026-04-24 21:17 | 41.14291 | 40.22313 | 23074 ft | 443 kts | 245° |
| 2026-04-24 21:18 | 41.12997 | 40.18644 | 23682 ft | 447 kts | 245° |
| 2026-04-24 21:18 | 41.11680 | 40.14877 | 24282 ft | 451 kts | 245° |
| 2026-04-24 21:18 | 41.10369 | 40.11105 | 24863 ft | 455 kts | 245° |
| 2026-04-24 21:18 | 41.09055 | 40.07305 | 25427 ft | 459 kts | 245° |
| 2026-04-24 21:19 | 41.07723 | 40.03439 | 25989 ft | 463 kts | 245° |
| 2026-04-24 21:19 | 41.06393 | 39.99573 | 26792 ft | 460 kts | 245° |
| 2026-04-24 21:19 | 41.05087 | 39.95776 | 27516 ft | 458 kts | 245° |
| 2026-04-24 21:19 | 41.03756 | 39.91905 | 27910 ft | 463 kts | 245° |
| 2026-04-24 21:20 | 41.01205 | 39.84173 | 27999 ft | 457 kts | 250° |
| 2026-04-24 21:20 | 41.00349 | 39.80142 | 28001 ft | 457 kts | 259° |
| 2026-04-24 21:20 | 41.00048 | 39.75973 | 28002 ft | 457 kts | 270° |
| 2026-04-24 21:21 | 41.00188 | 39.71811 | 28003 ft | 457 kts | 275° |
| 2026-04-24 21:21 | 41.00889 | 39.63502 | 28002 ft | 457 kts | 277° |
| 2026-04-24 21:22 | 41.01746 | 39.55193 | 28001 ft | 457 kts | 278° |
| 2026-04-24 21:22 | 41.02599 | 39.46849 | 28001 ft | 457 kts | 278° |
| 2026-04-24 21:23 | 41.03412 | 39.38559 | 28001 ft | 457 kts | 277° |
| 2026-04-24 21:23 | 41.04203 | 39.30230 | 28001 ft | 457 kts | 277° |
| 2026-04-24 21:24 | 41.04977 | 39.21898 | 28001 ft | 457 kts | 277° |
| 2026-04-24 21:24 | 41.05739 | 39.13591 | 28002 ft | 457 kts | 277° |
| 2026-04-24 21:25 | 41.06505 | 39.05266 | 28002 ft | 457 kts | 277° |
| 2026-04-24 21:25 | 41.07274 | 38.96926 | 28002 ft | 457 kts | 277° |
| 2026-04-24 21:26 | 41.08038 | 38.88594 | 28002 ft | 457 kts | 277° |
| 2026-04-24 21:26 | 41.08791 | 38.80299 | 28002 ft | 457 kts | 277° |
| 2026-04-24 21:27 | 41.09541 | 38.71953 | 28002 ft | 457 kts | 277° |
| 2026-04-24 21:27 | 41.10276 | 38.63641 | 28002 ft | 457 kts | 277° |
| 2026-04-24 21:28 | 41.10991 | 38.55293 | 28002 ft | 457 kts | 276° |
| 2026-04-24 21:28 | 41.11688 | 38.46958 | 28002 ft | 457 kts | 276° |
| 2026-04-24 21:29 | 41.12379 | 38.38594 | 28002 ft | 457 kts | 276° |
| 2026-04-24 21:29 | 41.13067 | 38.30221 | 28002 ft | 457 kts | 276° |
| 2026-04-24 21:30 | 41.13747 | 38.21891 | 28001 ft | 457 kts | 276° |
| 2026-04-24 21:30 | 41.14428 | 38.13552 | 28001 ft | 457 kts | 276° |
| 2026-04-24 21:31 | 41.15105 | 38.05202 | 28001 ft | 457 kts | 276° |
| 2026-04-24 21:31 | 41.15776 | 37.96841 | 28001 ft | 457 kts | 276° |
| 2026-04-24 21:32 | 41.16440 | 37.88497 | 28001 ft | 457 kts | 276° |
| 2026-04-24 21:32 | 41.17127 | 37.80160 | 28001 ft | 457 kts | 276° |
| 2026-04-24 21:33 | 41.17839 | 37.71821 | 28001 ft | 457 kts | 276° |
| 2026-04-24 21:33 | 41.18552 | 37.63439 | 28001 ft | 457 kts | 276° |
| 2026-04-24 21:34 | 41.19140 | 37.55096 | 28002 ft | 457 kts | 274° |
| 2026-04-24 21:34 | 41.19664 | 37.46703 | 28001 ft | 457 kts | 275° |
| 2026-04-24 21:35 | 41.20265 | 37.38350 | 28001 ft | 457 kts | 276° |
| 2026-04-24 21:35 | 41.20884 | 37.30001 | 28001 ft | 457 kts | 275° |
| 2026-04-24 21:36 | 41.21505 | 37.21589 | 28002 ft | 457 kts | 275° |
| 2026-04-24 21:36 | 41.22142 | 37.13267 | 28002 ft | 457 kts | 276° |
| 2026-04-24 21:37 | 41.22798 | 37.04885 | 28002 ft | 457 kts | 276° |
| 2026-04-24 21:37 | 41.23448 | 36.96511 | 28002 ft | 457 kts | 276° |
| 2026-04-24 21:38 | 41.24086 | 36.88168 | 28002 ft | 457 kts | 276° |
| 2026-04-24 21:38 | 41.24719 | 36.79776 | 28002 ft | 457 kts | 276° |
| 2026-04-24 21:39 | 41.25342 | 36.71420 | 28001 ft | 457 kts | 276° |
| 2026-04-24 21:39 | 41.25951 | 36.63157 | 28001 ft | 457 kts | 276° |
| 2026-04-24 21:40 | 41.26785 | 36.54835 | 28001 ft | 457 kts | 282° |
| 2026-04-24 21:40 | 41.28440 | 36.46760 | 28001 ft | 457 kts | 288° |
| 2026-04-24 21:41 | 41.30493 | 36.38746 | 28001 ft | 457 kts | 290° |
| 2026-04-24 21:41 | 41.32591 | 36.30820 | 28001 ft | 457 kts | 289° |
| 2026-04-24 21:42 | 41.34671 | 36.22847 | 28001 ft | 457 kts | 289° |
| 2026-04-24 21:42 | 41.36713 | 36.14881 | 28001 ft | 457 kts | 288° |
| 2026-04-24 21:43 | 41.38736 | 36.06892 | 28001 ft | 457 kts | 288° |
| 2026-04-24 21:43 | 41.40749 | 35.98883 | 28001 ft | 457 kts | 288° |
| 2026-04-24 21:44 | 41.42752 | 35.90873 | 28001 ft | 457 kts | 288° |
| 2026-04-24 21:44 | 41.44739 | 35.82892 | 28001 ft | 457 kts | 288° |
| 2026-04-24 21:45 | 41.46735 | 35.74851 | 28001 ft | 457 kts | 288° |
| 2026-04-24 21:45 | 41.48714 | 35.66848 | 28001 ft | 457 kts | 288° |
| 2026-04-24 21:46 | 41.50692 | 35.58822 | 28001 ft | 457 kts | 288° |
| 2026-04-24 21:46 | 41.52669 | 35.50774 | 28001 ft | 457 kts | 288° |
| 2026-04-24 21:47 | 41.54632 | 35.42760 | 28001 ft | 457 kts | 288° |
| 2026-04-24 21:47 | 41.56587 | 35.34748 | 28001 ft | 457 kts | 288° |
| 2026-04-24 21:48 | 41.58555 | 35.26654 | 28001 ft | 457 kts | 288° |
| 2026-04-24 21:48 | 41.60496 | 35.18641 | 28001 ft | 457 kts | 288° |
| 2026-04-24 21:49 | 41.62448 | 35.10554 | 28001 ft | 457 kts | 288° |
| 2026-04-24 21:49 | 41.64385 | 35.02507 | 28001 ft | 457 kts | 288° |
| 2026-04-24 21:50 | 41.66310 | 34.94478 | 28001 ft | 457 kts | 288° |
| 2026-04-24 21:50 | 41.68235 | 34.86419 | 28001 ft | 457 kts | 288° |
| 2026-04-24 21:51 | 41.70159 | 34.78340 | 28000 ft | 457 kts | 288° |
| 2026-04-24 21:51 | 41.72079 | 34.70247 | 28000 ft | 457 kts | 288° |
| 2026-04-24 21:51 | 41.73042 | 34.66178 | 28000 ft | 457 kts | 288° |
| 2026-04-24 21:52 | 41.73988 | 34.62174 | 28000 ft | 457 kts | 288° |
| 2026-04-24 21:52 | 41.74947 | 34.58105 | 28000 ft | 457 kts | 288° |
| 2026-04-24 21:52 | 41.75890 | 34.54098 | 28000 ft | 457 kts | 288° |
| 2026-04-24 21:52 | 41.76848 | 34.50018 | 28000 ft | 457 kts | 288° |
| 2026-04-24 21:53 | 41.77788 | 34.46008 | 28000 ft | 457 kts | 288° |
| 2026-04-24 21:53 | 41.78739 | 34.41948 | 28000 ft | 457 kts | 288° |
| 2026-04-24 21:53 | 41.79690 | 34.37878 | 28000 ft | 457 kts | 288° |
| 2026-04-24 21:53 | 41.80627 | 34.33860 | 28000 ft | 457 kts | 287° |
| 2026-04-24 21:54 | 41.81570 | 34.29809 | 28000 ft | 457 kts | 287° |
| 2026-04-24 21:54 | 41.82517 | 34.25735 | 28000 ft | 457 kts | 287° |
| 2026-04-24 21:54 | 41.83452 | 34.21705 | 28000 ft | 457 kts | 287° |
| 2026-04-24 21:55 | 41.85333 | 34.13573 | 28001 ft | 457 kts | 287° |
| 2026-04-24 21:55 | 41.87195 | 34.05495 | 28001 ft | 457 kts | 287° |
| 2026-04-24 21:56 | 41.89061 | 33.97368 | 28001 ft | 457 kts | 287° |
| 2026-04-24 21:56 | 41.90921 | 33.89240 | 28001 ft | 457 kts | 287° |
| 2026-04-24 21:57 | 41.92773 | 33.81117 | 28001 ft | 457 kts | 287° |
| 2026-04-24 21:57 | 41.94420 | 33.72893 | 28001 ft | 457 kts | 281° |
| 2026-04-24 21:58 | 41.94851 | 33.64413 | 28002 ft | 457 kts | 269° |
| 2026-04-24 21:58 | 41.94465 | 33.55938 | 28001 ft | 457 kts | 265° |
| 2026-04-24 21:59 | 41.93899 | 33.47484 | 28001 ft | 457 kts | 265° |
| 2026-04-24 21:59 | 41.93322 | 33.38981 | 28001 ft | 457 kts | 265° |
| 2026-04-24 22:00 | 41.92769 | 33.30542 | 28001 ft | 457 kts | 265° |
| 2026-04-24 22:00 | 41.92229 | 33.22073 | 28001 ft | 457 kts | 265° |
| 2026-04-24 22:01 | 41.91693 | 33.13592 | 28001 ft | 457 kts | 265° |
| 2026-04-24 22:01 | 41.91156 | 33.05143 | 28001 ft | 457 kts | 265° |
| 2026-04-24 22:02 | 41.90614 | 32.96673 | 28001 ft | 457 kts | 265° |
| 2026-04-24 22:02 | 41.90065 | 32.88208 | 28001 ft | 457 kts | 265° |
| 2026-04-24 22:03 | 41.89510 | 32.79722 | 28001 ft | 457 kts | 265° |
| 2026-04-24 22:03 | 41.88951 | 32.71293 | 28001 ft | 457 kts | 265° |
| 2026-04-24 22:04 | 41.88385 | 32.62838 | 28001 ft | 457 kts | 265° |
| 2026-04-24 22:04 | 41.87810 | 32.54356 | 28001 ft | 457 kts | 265° |
| 2026-04-24 22:05 | 41.87743 | 32.45901 | 28001 ft | 457 kts | 276° |
| 2026-04-24 22:05 | 41.89081 | 32.37628 | 28002 ft | 457 kts | 286° |
| 2026-04-24 22:06 | 41.90455 | 32.29287 | 28001 ft | 457 kts | 278° |
| 2026-04-24 22:06 | 41.90630 | 32.25082 | 28001 ft | 457 kts | 267° |
| 2026-04-24 22:06 | 41.90234 | 32.20842 | 28003 ft | 457 kts | 259° |
| 2026-04-24 22:07 | 41.88762 | 32.12618 | 28002 ft | 457 kts | 255° |
| 2026-04-24 22:07 | 41.87072 | 32.04442 | 28002 ft | 457 kts | 254° |
| 2026-04-24 22:08 | 41.85339 | 31.96239 | 28002 ft | 457 kts | 254° |
| 2026-04-24 22:08 | 41.83623 | 31.88077 | 28002 ft | 457 kts | 254° |
| 2026-04-24 22:09 | 41.81918 | 31.79927 | 28002 ft | 457 kts | 254° |
| 2026-04-24 22:09 | 41.80200 | 31.71706 | 28002 ft | 457 kts | 255° |
| 2026-04-24 22:10 | 41.78495 | 31.63576 | 28001 ft | 457 kts | 255° |
| 2026-04-24 22:10 | 41.76774 | 31.55395 | 28001 ft | 457 kts | 255° |
| 2026-04-24 22:11 | 41.75051 | 31.47236 | 28001 ft | 457 kts | 255° |
| 2026-04-24 22:11 | 41.73324 | 31.39090 | 28001 ft | 457 kts | 255° |
| 2026-04-24 22:12 | 41.71592 | 31.30953 | 28001 ft | 457 kts | 254° |
| 2026-04-24 22:12 | 41.69843 | 31.22763 | 28001 ft | 457 kts | 254° |
| 2026-04-24 22:13 | 41.68095 | 31.14610 | 28001 ft | 457 kts | 254° |
| 2026-04-24 22:13 | 41.66437 | 31.06448 | 28001 ft | 457 kts | 256° |
| 2026-04-24 22:14 | 41.64908 | 30.98273 | 27990 ft | 455 kts | 256° |
| 2026-04-24 22:14 | 41.64150 | 30.94180 | 27559 ft | 449 kts | 256° |
| 2026-04-24 22:14 | 41.63408 | 30.90184 | 26763 ft | 448 kts | 256° |
| 2026-04-24 22:14 | 41.62654 | 30.86152 | 26086 ft | 444 kts | 256° |
| 2026-04-24 22:15 | 41.61910 | 30.82198 | 25418 ft | 439 kts | 256° |
| 2026-04-24 22:15 | 41.61175 | 30.78310 | 25066 ft | 431 kts | 256° |
| 2026-04-24 22:15 | 41.60437 | 30.74432 | 25012 ft | 434 kts | 256° |
| 2026-04-24 22:15 | 41.59739 | 30.70483 | 25003 ft | 437 kts | 258° |
| 2026-04-24 22:16 | 41.59270 | 30.66516 | 25002 ft | 436 kts | 264° |
| 2026-04-24 22:16 | 41.59056 | 30.62471 | 25001 ft | 436 kts | 268° |
| 2026-04-24 22:16 | 41.58997 | 30.58432 | 25001 ft | 437 kts | 270° |
| 2026-04-24 22:16 | 41.59020 | 30.54407 | 25001 ft | 436 kts | 271° |
| 2026-04-24 22:17 | 41.59076 | 30.50344 | 25002 ft | 436 kts | 271° |
| 2026-04-24 22:17 | 41.59140 | 30.46335 | 25001 ft | 436 kts | 271° |
| 2026-04-24 22:17 | 41.59199 | 30.42271 | 25001 ft | 436 kts | 271° |
| 2026-04-24 22:17 | 41.59249 | 30.38224 | 25002 ft | 436 kts | 271° |
| 2026-04-24 22:18 | 41.59290 | 30.34184 | 25001 ft | 436 kts | 270° |
| 2026-04-24 22:18 | 41.59322 | 30.30146 | 25001 ft | 436 kts | 270° |
| 2026-04-24 22:18 | 41.59347 | 30.26121 | 25002 ft | 436 kts | 270° |
| 2026-04-24 22:18 | 41.59368 | 30.22048 | 25002 ft | 436 kts | 270° |
| 2026-04-24 22:19 | 41.59385 | 30.18058 | 24811 ft | 430 kts | 270° |
| 2026-04-24 22:19 | 41.59399 | 30.14117 | 24054 ft | 429 kts | 270° |
| 2026-04-24 22:19 | 41.59411 | 30.10162 | 23363 ft | 426 kts | 270° |
| 2026-04-24 22:19 | 41.59421 | 30.06235 | 22700 ft | 422 kts | 270° |
| 2026-04-24 22:20 | 41.59430 | 30.02347 | 22041 ft | 417 kts | 270° |
| 2026-04-24 22:20 | 41.59437 | 29.98534 | 21393 ft | 413 kts | 270° |
| 2026-04-24 22:20 | 41.59443 | 29.94731 | 20739 ft | 409 kts | 270° |
| 2026-04-24 22:20 | 41.59448 | 29.90989 | 20024 ft | 399 kts | 270° |
| 2026-04-24 22:21 | 41.59451 | 29.87352 | 19537 ft | 383 kts | 270° |
| 2026-04-24 22:21 | 41.59453 | 29.83910 | 19112 ft | 367 kts | 270° |
| 2026-04-24 22:21 | 41.59454 | 29.80572 | 18739 ft | 351 kts | 270° |
| 2026-04-24 22:21 | 41.59454 | 29.77412 | 18426 ft | 336 kts | 270° |
| 2026-04-24 22:22 | 41.59454 | 29.74358 | 18163 ft | 321 kts | 270° |
| 2026-04-24 22:22 | 41.59452 | 29.71479 | 17949 ft | 306 kts | 270° |
| 2026-04-24 22:22 | 41.59450 | 29.68684 | 17596 ft | 298 kts | 270° |
| 2026-04-24 22:22 | 41.59448 | 29.65922 | 17074 ft | 296 kts | 270° |
| 2026-04-24 22:23 | 41.59444 | 29.63212 | 16572 ft | 294 kts | 270° |
| 2026-04-24 22:23 | 41.59441 | 29.60498 | 16067 ft | 292 kts | 270° |
| 2026-04-24 22:23 | 41.59436 | 29.57804 | 15567 ft | 289 kts | 270° |
| 2026-04-24 22:23 | 41.59431 | 29.55155 | 15072 ft | 287 kts | 270° |
| 2026-04-24 22:24 | 41.59425 | 29.52525 | 14582 ft | 285 kts | 270° |
| 2026-04-24 22:24 | 41.59419 | 29.49872 | 14085 ft | 283 kts | 270° |
| 2026-04-24 22:24 | 41.59413 | 29.47290 | 13600 ft | 281 kts | 270° |
| 2026-04-24 22:24 | 41.59405 | 29.44702 | 13113 ft | 279 kts | 270° |
| 2026-04-24 22:25 | 41.59398 | 29.42122 | 12628 ft | 277 kts | 270° |
| 2026-04-24 22:25 | 41.59390 | 29.39591 | 12150 ft | 275 kts | 270° |
| 2026-04-24 22:25 | 41.59380 | 29.37039 | 11668 ft | 273 kts | 270° |
| 2026-04-24 22:25 | 41.59371 | 29.34541 | 11195 ft | 271 kts | 269° |
| 2026-04-24 22:26 | 41.59362 | 29.32033 | 10719 ft | 269 kts | 269° |
| 2026-04-24 22:26 | 41.59351 | 29.29581 | 10253 ft | 267 kts | 269° |
| 2026-04-24 22:26 | 41.59341 | 29.27094 | 9780 ft | 265 kts | 269° |
| 2026-04-24 22:26 | 41.59330 | 29.24668 | 9317 ft | 263 kts | 269° |
| 2026-04-24 22:27 | 41.59318 | 29.22253 | 8856 ft | 261 kts | 269° |
| 2026-04-24 22:27 | 41.59306 | 29.19827 | 8391 ft | 260 kts | 269° |
| 2026-04-24 22:27 | 41.59294 | 29.17448 | 7935 ft | 258 kts | 269° |
| 2026-04-24 22:27 | 41.59281 | 29.15055 | 7476 ft | 256 kts | 269° |
| 2026-04-24 22:28 | 41.59268 | 29.12704 | 7024 ft | 254 kts | 269° |
| 2026-04-24 22:28 | 41.59254 | 29.10351 | 6572 ft | 253 kts | 269° |
| 2026-04-24 22:28 | 41.59240 | 29.08038 | 6127 ft | 251 kts | 269° |
| 2026-04-24 22:28 | 41.59226 | 29.05718 | 5681 ft | 250 kts | 269° |
| 2026-04-24 22:29 | 41.59196 | 29.01134 | 4799 ft | 246 kts | 269° |
| 2026-04-24 22:29 | 41.59181 | 28.98848 | 4359 ft | 245 kts | 269° |
| 2026-04-24 22:29 | 41.59165 | 28.96596 | 3926 ft | 243 kts | 269° |
| 2026-04-24 22:30 | 41.59149 | 28.94342 | 3493 ft | 242 kts | 269° |
| 2026-04-24 22:30 | 41.59132 | 28.92114 | 3090 ft | 239 kts | 269° |
| 2026-04-24 22:30 | 41.59116 | 28.89936 | 2994 ft | 234 kts | 269° |
| 2026-04-24 22:30 | 41.59100 | 28.87848 | 2993 ft | 216 kts | 269° |
| 2026-04-24 22:31 | 41.59084 | 28.85930 | 2998 ft | 198 kts | 269° |
| 2026-04-24 22:31 | 41.59070 | 28.84137 | 3016 ft | 187 kts | 269° |
| 2026-04-24 22:31 | 41.59056 | 28.82412 | 3003 ft | 181 kts | 269° |
| 2026-04-24 22:31 | 41.59042 | 28.80758 | 3003 ft | 177 kts | 269° |
| 2026-04-24 22:32 | 41.59029 | 28.79180 | 3010 ft | 167 kts | 269° |
| 2026-04-24 22:32 | 41.59015 | 28.77643 | 3004 ft | 166 kts | 269° |
| 2026-04-24 22:32 | 41.59002 | 28.76117 | 3170 ft | 170 kts | 269° |
| 2026-04-24 22:32 | 41.58871 | 28.74525 | 3035 ft | 172 kts | 251° |
| 2026-04-24 22:33 | 41.58162 | 28.73319 | 3010 ft | 167 kts | 212° |
| 2026-04-24 22:33 | 41.57090 | 28.72777 | 2998 ft | 166 kts | 195° |
| 2026-04-24 22:33 | 41.55989 | 28.72475 | 2995 ft | 157 kts | 188° |
| 2026-04-24 22:33 | 41.54908 | 28.72339 | 3001 ft | 156 kts | 183° |
| 2026-04-24 22:34 | 41.53816 | 28.72290 | 3002 ft | 156 kts | 181° |
| 2026-04-24 22:34 | 41.52729 | 28.72283 | 3002 ft | 156 kts | 180° |
| 2026-04-24 22:34 | 41.51637 | 28.72293 | 3002 ft | 156 kts | 179° |
| 2026-04-24 22:34 | 41.50543 | 28.72310 | 3002 ft | 156 kts | 179° |
| 2026-04-24 22:35 | 41.49452 | 28.72329 | 3002 ft | 156 kts | 179° |
| 2026-04-24 22:35 | 41.48366 | 28.72349 | 3002 ft | 156 kts | 179° |
| 2026-04-24 22:35 | 41.47276 | 28.72370 | 3002 ft | 156 kts | 179° |
| 2026-04-24 22:35 | 41.46198 | 28.72391 | 3002 ft | 156 kts | 179° |
| 2026-04-24 22:36 | 41.45103 | 28.72412 | 3002 ft | 156 kts | 179° |
| 2026-04-24 22:36 | 41.44009 | 28.72433 | 3001 ft | 156 kts | 179° |
| 2026-04-24 22:36 | 41.42912 | 28.72455 | 2913 ft | 158 kts | 179° |
| 2026-04-24 22:36 | 41.41818 | 28.72476 | 2697 ft | 156 kts | 179° |
| 2026-04-24 22:37 | 41.40739 | 28.72497 | 2483 ft | 155 kts | 179° |
| 2026-04-24 22:37 | 41.39659 | 28.72518 | 2270 ft | 155 kts | 179° |
| 2026-04-24 22:37 | 41.38590 | 28.72538 | 2060 ft | 154 kts | 179° |
| 2026-04-24 22:37 | 41.37519 | 28.72559 | 1850 ft | 154 kts | 179° |
| 2026-04-24 22:38 | 41.36459 | 28.72579 | 1642 ft | 153 kts | 179° |
| 2026-04-24 22:38 | 41.35384 | 28.72600 | 1432 ft | 153 kts | 179° |
| 2026-04-24 22:38 | 41.34320 | 28.72620 | 1225 ft | 152 kts | 179° |
| 2026-04-24 22:38 | 41.33263 | 28.72640 | 1022 ft | 152 kts | 179° |
| 2026-04-24 22:39 | 41.32209 | 28.72661 | 812 ft | 152 kts | 179° |
| 2026-04-24 22:39 | 41.31151 | 28.72686 | 587 ft | 153 kts | 179° |
| 2026-04-24 22:39 | 41.30087 | 28.72717 | 440 ft | 151 kts | 180° |
| 2026-04-24 22:39 | 41.29102 | 28.72715 | 344 ft | 133 kts | 180° |
| 2026-04-24 22:40 | 41.28419 | 28.72735 | 333 ft | 53 kts | 179° |
| 2026-04-24 22:40 | 41.28200 | 28.72744 | 333 ft | 26 kts | 178° |
| 2026-04-24 22:40 | 41.28016 | 28.72751 | 333 ft | 26 kts | 179° |
| 2026-04-24 22:40 | 41.27839 | 28.72785 | 333 ft | 25 kts | 152° |
| 2026-04-24 22:41 | 41.27797 | 28.72818 | 333 ft | 1 kts | 149° |
| 2026-04-24 22:41 | 41.27782 | 28.72829 | 333 ft | 3 kts | 149° |
| 2026-04-24 22:41 | 41.27761 | 28.72846 | 333 ft | 3 kts | 149° |
| 2026-04-24 22:41 | 41.27737 | 28.72866 | 333 ft | 4 kts | 149° |
| 2026-04-24 22:42 | 41.27710 | 28.72887 | 333 ft | 4 kts | 149° |
| 2026-04-24 22:42 | 41.27682 | 28.72910 | 333 ft | 4 kts | 149° |
| 2026-04-24 22:42 | 41.27653 | 28.72933 | 333 ft | 4 kts | 149° |
| 2026-04-24 22:42 | 41.27625 | 28.72958 | 333 ft | 4 kts | 140° |
| 2026-04-24 22:43 | 41.27601 | 28.72992 | 333 ft | 4 kts | 127° |
| 2026-04-24 22:43 | 41.27582 | 28.73030 | 333 ft | 4 kts | 123° |
| 2026-04-24 22:43 | 41.27565 | 28.73068 | 333 ft | 4 kts | 101° |
| 2026-04-24 22:43 | 41.27574 | 28.73111 | 333 ft | 4 kts | 70° |
| 2026-04-24 22:44 | 41.27584 | 28.73154 | 333 ft | 4 kts | 79° |
| 2026-04-24 22:44 | 41.27586 | 28.73199 | 333 ft | 4 kts | 90° |
| 2026-04-24 22:44 | 41.27585 | 28.73244 | 333 ft | 4 kts | 90° |
| 2026-04-24 22:44 | 41.27585 | 28.73289 | 333 ft | 4 kts | 90° |
| 2026-04-24 22:45 | 41.27585 | 28.73302 | 333 ft | 0 kts | 90° |